sensor_id;sensor_type;location;lat;lon;timestamp;temperature;humidity
15328;DHT22;7764;51.430;6.840;2023-11-19T00:00:12;11.30;99.90
15328;DHT22;7764;51.430;6.840;2023-11-19T00:02:39;11.30;99.90
15328;DHT22;7764;51.430;6.840;2023-11-19T00:05:07;11.40;99.90
15328;DHT22;7764;51.430;6.840;2023-11-19T00:07:38;11.40;99.90
15328;DHT22;7764;51.430;6.840;2023-11-19T00:10:07;11.40;99.90
15328;DHT22;7764;51.430;6.840;2023-11-19T00:12:35;11.40;99.90
15328;DHT22;7764;51.430;6.840;2023-11-19T00:15:02;11.40;99.90
15328;DHT22;7764;51.430;6.840;2023-11-19T00:17:30;11.40;99.90
15328;DHT22;7764;51.430;6.840;2023-11-19T00:19:56;11.40;99.90
15328;DHT22;7764;51.430;6.840;2023-11-19T00:22:22;11.40;99.90
15328;DHT22;7764;51.430;6.840;2023-11-19T00:24:52;11.50;99.90
15328;DHT22;7764;51.430;6.840;2023-11-19T00:27:19;11.50;99.90
15328;DHT22;7764;51.430;6.840;2023-11-19T00:29:46;11.50;99.90
15328;DHT22;7764;51.430;6.840;2023-11-19T00:32:13;11.60;99.90
15328;DHT22;7764;51.430;6.840;2023-11-19T00:34:41;11.60;99.90
15328;DHT22;7764;51.430;6.840;2023-11-19T00:37:09;11.60;99.90
15328;DHT22;7764;51.430;6.840;2023-11-19T00:39:36;11.60;99.90
15328;DHT22;7764;51.430;6.840;2023-11-19T00:42:05;11.60;99.90
15328;DHT22;7764;51.430;6.840;2023-11-19T00:44:31;11.70;99.90
15328;DHT22;7764;51.430;6.840;2023-11-19T00:46:58;11.70;99.90
15328;DHT22;7764;51.430;6.840;2023-11-19T00:49:26;11.70;99.90
15328;DHT22;7764;51.430;6.840;2023-11-19T00:51:53;11.80;99.90
15328;DHT22;7764;51.430;6.840;2023-11-19T00:54:20;11.80;99.90
15328;DHT22;7764;51.430;6.840;2023-11-19T00:56:49;11.80;99.90
15328;DHT22;7764;51.430;6.840;2023-11-19T00:59:19;11.80;99.90
15328;DHT22;7764;51.430;6.840;2023-11-19T01:01:46;11.90;99.90
15328;DHT22;7764;51.430;6.840;2023-11-19T01:04:13;11.90;99.90
15328;DHT22;7764;51.430;6.840;2023-11-19T01:06:40;12.00;99.90
15328;DHT22;7764;51.430;6.840;2023-11-19T01:09:08;12.00;99.90
15328;DHT22;7764;51.430;6.840;2023-11-19T01:11:35;12.00;99.90
15328;DHT22;7764;51.430;6.840;2023-11-19T01:14:02;12.10;99.90
15328;DHT22;7764;51.430;6.840;2023-11-19T01:16:30;12.10;99.90
15328;DHT22;7764;51.430;6.840;2023-11-19T01:18:56;12.10;99.90
15328;DHT22;7764;51.430;6.840;2023-11-19T01:21:23;12.10;99.90
15328;DHT22;7764;51.430;6.840;2023-11-19T01:23:50;12.20;99.90
15328;DHT22;7764;51.430;6.840;2023-11-19T01:26:17;12.20;99.90
15328;DHT22;7764;51.430;6.840;2023-11-19T01:28:44;12.20;99.90
15328;DHT22;7764;51.430;6.840;2023-11-19T01:31:12;12.30;99.90
15328;DHT22;7764;51.430;6.840;2023-11-19T01:33:42;12.30;99.90
15328;DHT22;7764;51.430;6.840;2023-11-19T01:36:12;12.30;99.90
15328;DHT22;7764;51.430;6.840;2023-11-19T01:38:39;12.30;99.90
15328;DHT22;7764;51.430;6.840;2023-11-19T01:41:06;12.30;99.90
15328;DHT22;7764;51.430;6.840;2023-11-19T01:43:37;12.40;99.90
15328;DHT22;7764;51.430;6.840;2023-11-19T01:46:05;12.30;99.90
15328;DHT22;7764;51.430;6.840;2023-11-19T01:48:34;12.30;99.90
15328;DHT22;7764;51.430;6.840;2023-11-19T01:51:04;12.30;99.90
15328;DHT22;7764;51.430;6.840;2023-11-19T01:53:31;12.40;99.90
15328;DHT22;7764;51.430;6.840;2023-11-19T01:55:58;12.40;99.90
15328;DHT22;7764;51.430;6.840;2023-11-19T01:58:25;12.40;99.90
15328;DHT22;7764;51.430;6.840;2023-11-19T02:00:55;12.50;99.90
15328;DHT22;7764;51.430;6.840;2023-11-19T02:03:23;12.40;99.90
15328;DHT22;7764;51.430;6.840;2023-11-19T02:05:51;12.40;99.90
15328;DHT22;7764;51.430;6.840;2023-11-19T02:08:19;12.40;99.90
15328;DHT22;7764;51.430;6.840;2023-11-19T02:10:46;12.40;99.90
15328;DHT22;7764;51.430;6.840;2023-11-19T02:13:13;12.40;99.90
15328;DHT22;7764;51.430;6.840;2023-11-19T02:15:41;12.50;99.90
15328;DHT22;7764;51.430;6.840;2023-11-19T02:18:19;12.50;99.90
15328;DHT22;7764;51.430;6.840;2023-11-19T02:20:47;12.50;99.90
15328;DHT22;7764;51.430;6.840;2023-11-19T02:23:15;12.50;99.90
15328;DHT22;7764;51.430;6.840;2023-11-19T02:25:47;12.40;99.90
15328;DHT22;7764;51.430;6.840;2023-11-19T02:28:18;12.50;99.90
15328;DHT22;7764;51.430;6.840;2023-11-19T02:30:45;12.50;99.90
15328;DHT22;7764;51.430;6.840;2023-11-19T02:33:12;12.50;99.90
15328;DHT22;7764;51.430;6.840;2023-11-19T02:35:40;12.50;99.90
15328;DHT22;7764;51.430;6.840;2023-11-19T02:38:07;12.50;99.90
15328;DHT22;7764;51.430;6.840;2023-11-19T02:40:34;12.50;99.90
15328;DHT22;7764;51.430;6.840;2023-11-19T02:43:01;12.50;99.90
15328;DHT22;7764;51.430;6.840;2023-11-19T02:45:31;12.50;99.90
15328;DHT22;7764;51.430;6.840;2023-11-19T02:47:58;12.50;99.90
15328;DHT22;7764;51.430;6.840;2023-11-19T02:50:27;12.50;99.90
15328;DHT22;7764;51.430;6.840;2023-11-19T02:52:55;12.50;99.90
15328;DHT22;7764;51.430;6.840;2023-11-19T02:55:22;12.50;99.90
15328;DHT22;7764;51.430;6.840;2023-11-19T02:57:50;12.50;99.90
15328;DHT22;7764;51.430;6.840;2023-11-19T03:00:20;12.60;99.90
15328;DHT22;7764;51.430;6.840;2023-11-19T03:02:51;12.60;99.90
15328;DHT22;7764;51.430;6.840;2023-11-19T03:05:25;12.70;99.90
15328;DHT22;7764;51.430;6.840;2023-11-19T03:07:52;12.70;99.90
15328;DHT22;7764;51.430;6.840;2023-11-19T03:10:18;12.70;99.90
15328;DHT22;7764;51.430;6.840;2023-11-19T03:12:45;12.70;99.90
15328;DHT22;7764;51.430;6.840;2023-11-19T03:15:12;12.70;99.90
15328;DHT22;7764;51.430;6.840;2023-11-19T03:17:40;12.70;99.90
15328;DHT22;7764;51.430;6.840;2023-11-19T03:20:10;12.70;99.90
15328;DHT22;7764;51.430;6.840;2023-11-19T03:22:40;12.70;99.90
15328;DHT22;7764;51.430;6.840;2023-11-19T03:25:08;12.70;99.90
15328;DHT22;7764;51.430;6.840;2023-11-19T03:27:34;12.70;99.90
15328;DHT22;7764;51.430;6.840;2023-11-19T03:30:02;12.60;99.90
15328;DHT22;7764;51.430;6.840;2023-11-19T03:32:30;12.60;99.90
15328;DHT22;7764;51.430;6.840;2023-11-19T03:34:57;12.60;99.90
15328;DHT22;7764;51.430;6.840;2023-11-19T03:37:26;12.60;99.90
15328;DHT22;7764;51.430;6.840;2023-11-19T03:39:53;12.60;99.90
15328;DHT22;7764;51.430;6.840;2023-11-19T03:42:20;12.60;99.90
15328;DHT22;7764;51.430;6.840;2023-11-19T03:44:48;12.50;99.90
15328;DHT22;7764;51.430;6.840;2023-11-19T03:47:16;12.50;99.90
15328;DHT22;7764;51.430;6.840;2023-11-19T03:49:42;12.40;99.90
15328;DHT22;7764;51.430;6.840;2023-11-19T03:52:14;12.40;99.90
15328;DHT22;7764;51.430;6.840;2023-11-19T03:54:42;12.40;99.90
15328;DHT22;7764;51.430;6.840;2023-11-19T03:57:09;12.30;99.90
15328;DHT22;7764;51.430;6.840;2023-11-19T03:59:37;12.30;99.90
15328;DHT22;7764;51.430;6.840;2023-11-19T04:02:04;12.20;99.90
15328;DHT22;7764;51.430;6.840;2023-11-19T04:04:31;12.20;99.90
15328;DHT22;7764;51.430;6.840;2023-11-19T04:06:59;12.10;99.90
15328;DHT22;7764;51.430;6.840;2023-11-19T04:09:26;12.10;99.90
15328;DHT22;7764;51.430;6.840;2023-11-19T04:11:54;12.20;99.90
15328;DHT22;7764;51.430;6.840;2023-11-19T04:14:21;12.10;99.90
15328;DHT22;7764;51.430;6.840;2023-11-19T04:16:48;12.10;99.90
15328;DHT22;7764;51.430;6.840;2023-11-19T04:19:15;12.10;99.90
15328;DHT22;7764;51.430;6.840;2023-11-19T04:21:41;12.10;99.90
15328;DHT22;7764;51.430;6.840;2023-11-19T04:24:09;12.00;99.90
15328;DHT22;7764;51.430;6.840;2023-11-19T04:26:40;12.00;99.90
15328;DHT22;7764;51.430;6.840;2023-11-19T04:29:09;12.00;99.90
15328;DHT22;7764;51.430;6.840;2023-11-19T04:31:36;12.00;99.90
15328;DHT22;7764;51.430;6.840;2023-11-19T04:34:03;12.10;99.90
15328;DHT22;7764;51.430;6.840;2023-11-19T04:36:31;12.10;99.90
15328;DHT22;7764;51.430;6.840;2023-11-19T04:38:58;12.20;99.90
15328;DHT22;7764;51.430;6.840;2023-11-19T04:41:26;12.10;99.90
15328;DHT22;7764;51.430;6.840;2023-11-19T04:43:54;12.10;99.90
15328;DHT22;7764;51.430;6.840;2023-11-19T04:46:22;12.10;99.90
15328;DHT22;7764;51.430;6.840;2023-11-19T04:48:49;12.10;99.90
15328;DHT22;7764;51.430;6.840;2023-11-19T04:51:16;12.10;99.90
15328;DHT22;7764;51.430;6.840;2023-11-19T04:53:43;12.10;99.90
15328;DHT22;7764;51.430;6.840;2023-11-19T04:56:11;12.20;99.90
15328;DHT22;7764;51.430;6.840;2023-11-19T04:58:38;12.10;99.90
15328;DHT22;7764;51.430;6.840;2023-11-19T05:01:05;12.10;99.90
15328;DHT22;7764;51.430;6.840;2023-11-19T05:03:34;12.20;99.90
15328;DHT22;7764;51.430;6.840;2023-11-19T05:06:01;12.20;99.90
15328;DHT22;7764;51.430;6.840;2023-11-19T05:08:28;12.20;99.90
15328;DHT22;7764;51.430;6.840;2023-11-19T05:10:55;12.20;99.90
15328;DHT22;7764;51.430;6.840;2023-11-19T05:13:23;12.20;99.90
15328;DHT22;7764;51.430;6.840;2023-11-19T05:15:50;12.20;99.90
15328;DHT22;7764;51.430;6.840;2023-11-19T05:18:20;12.20;99.90
15328;DHT22;7764;51.430;6.840;2023-11-19T05:20:48;12.20;99.90
15328;DHT22;7764;51.430;6.840;2023-11-19T05:23:15;12.20;99.90
15328;DHT22;7764;51.430;6.840;2023-11-19T05:25:42;12.20;99.90
15328;DHT22;7764;51.430;6.840;2023-11-19T05:28:08;12.20;99.90
15328;DHT22;7764;51.430;6.840;2023-11-19T05:30:35;12.20;99.90
15328;DHT22;7764;51.430;6.840;2023-11-19T05:33:02;12.30;99.90
15328;DHT22;7764;51.430;6.840;2023-11-19T05:35:29;12.30;99.90
15328;DHT22;7764;51.430;6.840;2023-11-19T05:37:57;12.30;99.90
15328;DHT22;7764;51.430;6.840;2023-11-19T05:40:24;12.30;99.90
15328;DHT22;7764;51.430;6.840;2023-11-19T05:42:50;12.30;99.90
15328;DHT22;7764;51.430;6.840;2023-11-19T05:45:17;12.30;99.90
15328;DHT22;7764;51.430;6.840;2023-11-19T05:47:44;12.30;99.90
15328;DHT22;7764;51.430;6.840;2023-11-19T05:50:11;12.30;99.90
15328;DHT22;7764;51.430;6.840;2023-11-19T05:52:38;12.30;99.90
15328;DHT22;7764;51.430;6.840;2023-11-19T05:55:07;12.20;99.90
15328;DHT22;7764;51.430;6.840;2023-11-19T05:57:35;12.30;99.90
15328;DHT22;7764;51.430;6.840;2023-11-19T06:00:03;12.20;99.90
15328;DHT22;7764;51.430;6.840;2023-11-19T06:02:32;12.20;99.90
15328;DHT22;7764;51.430;6.840;2023-11-19T06:04:59;12.20;99.90
15328;DHT22;7764;51.430;6.840;2023-11-19T06:07:26;12.20;99.90
15328;DHT22;7764;51.430;6.840;2023-11-19T06:09:53;12.20;99.90
15328;DHT22;7764;51.430;6.840;2023-11-19T06:12:21;12.20;99.90
15328;DHT22;7764;51.430;6.840;2023-11-19T06:14:48;12.20;99.90
15328;DHT22;7764;51.430;6.840;2023-11-19T06:17:14;12.20;99.90
15328;DHT22;7764;51.430;6.840;2023-11-19T06:19:41;12.20;99.90
15328;DHT22;7764;51.430;6.840;2023-11-19T06:22:08;12.20;99.90
15328;DHT22;7764;51.430;6.840;2023-11-19T06:24:35;12.20;99.90
15328;DHT22;7764;51.430;6.840;2023-11-19T06:27:02;12.20;99.90
15328;DHT22;7764;51.430;6.840;2023-11-19T06:29:31;12.20;99.90
15328;DHT22;7764;51.430;6.840;2023-11-19T06:31:58;12.10;99.90
15328;DHT22;7764;51.430;6.840;2023-11-19T06:34:24;12.10;99.90
15328;DHT22;7764;51.430;6.840;2023-11-19T06:36:51;12.10;99.90
15328;DHT22;7764;51.430;6.840;2023-11-19T06:39:18;12.10;99.90
15328;DHT22;7764;51.430;6.840;2023-11-19T06:41:45;12.10;99.90
15328;DHT22;7764;51.430;6.840;2023-11-19T06:44:12;12.10;99.90
15328;DHT22;7764;51.430;6.840;2023-11-19T06:46:41;12.10;99.90
15328;DHT22;7764;51.430;6.840;2023-11-19T06:49:07;12.00;99.90
15328;DHT22;7764;51.430;6.840;2023-11-19T06:51:34;12.10;99.90
15328;DHT22;7764;51.430;6.840;2023-11-19T06:54:01;12.10;99.90
15328;DHT22;7764;51.430;6.840;2023-11-19T06:56:28;12.00;99.90
15328;DHT22;7764;51.430;6.840;2023-11-19T06:58:55;12.00;99.90
15328;DHT22;7764;51.430;6.840;2023-11-19T07:01:22;12.00;99.90
15328;DHT22;7764;51.430;6.840;2023-11-19T07:03:50;11.90;99.90
15328;DHT22;7764;51.430;6.840;2023-11-19T07:06:17;11.90;99.90
15328;DHT22;7764;51.430;6.840;2023-11-19T07:08:44;11.90;99.90
15328;DHT22;7764;51.430;6.840;2023-11-19T07:11:11;11.90;99.90
15328;DHT22;7764;51.430;6.840;2023-11-19T07:13:39;11.90;99.90
15328;DHT22;7764;51.430;6.840;2023-11-19T07:16:07;11.80;99.90
15328;DHT22;7764;51.430;6.840;2023-11-19T07:18:36;11.80;99.90
15328;DHT22;7764;51.430;6.840;2023-11-19T07:21:06;11.80;99.90
15328;DHT22;7764;51.430;6.840;2023-11-19T07:23:35;11.70;99.90
15328;DHT22;7764;51.430;6.840;2023-11-19T07:26:05;11.70;99.90
15328;DHT22;7764;51.430;6.840;2023-11-19T07:28:33;11.70;99.90
15328;DHT22;7764;51.430;6.840;2023-11-19T07:31:00;11.70;99.90
15328;DHT22;7764;51.430;6.840;2023-11-19T07:33:27;11.70;99.90
15328;DHT22;7764;51.430;6.840;2023-11-19T07:35:55;11.70;99.90
15328;DHT22;7764;51.430;6.840;2023-11-19T07:38:23;11.70;99.90
15328;DHT22;7764;51.430;6.840;2023-11-19T07:40:50;11.90;99.90
15328;DHT22;7764;51.430;6.840;2023-11-19T07:43:17;11.90;99.90
15328;DHT22;7764;51.430;6.840;2023-11-19T07:45:43;11.90;99.90
15328;DHT22;7764;51.430;6.840;2023-11-19T07:48:11;11.90;99.90
15328;DHT22;7764;51.430;6.840;2023-11-19T07:50:39;11.90;99.90
15328;DHT22;7764;51.430;6.840;2023-11-19T07:53:06;11.90;99.90
15328;DHT22;7764;51.430;6.840;2023-11-19T07:55:35;11.90;99.90
15328;DHT22;7764;51.430;6.840;2023-11-19T07:58:02;11.90;99.90
15328;DHT22;7764;51.430;6.840;2023-11-19T08:00:29;11.90;99.90
15328;DHT22;7764;51.430;6.840;2023-11-19T08:02:56;11.90;99.90
15328;DHT22;7764;51.430;6.840;2023-11-19T08:05:22;11.90;99.90
15328;DHT22;7764;51.430;6.840;2023-11-19T08:07:50;11.90;99.90
15328;DHT22;7764;51.430;6.840;2023-11-19T08:10:18;11.90;99.90
15328;DHT22;7764;51.430;6.840;2023-11-19T08:12:46;12.00;99.90
15328;DHT22;7764;51.430;6.840;2023-11-19T08:15:13;12.00;99.90
15328;DHT22;7764;51.430;6.840;2023-11-19T08:17:41;12.00;99.90
15328;DHT22;7764;51.430;6.840;2023-11-19T08:20:08;12.00;99.90
15328;DHT22;7764;51.430;6.840;2023-11-19T08:22:36;12.00;99.90
15328;DHT22;7764;51.430;6.840;2023-11-19T08:25:03;12.10;99.90
15328;DHT22;7764;51.430;6.840;2023-11-19T08:27:30;12.20;99.90
15328;DHT22;7764;51.430;6.840;2023-11-19T08:29:59;12.20;99.90
15328;DHT22;7764;51.430;6.840;2023-11-19T08:32:27;12.20;99.90
15328;DHT22;7764;51.430;6.840;2023-11-19T08:34:53;12.20;99.90
15328;DHT22;7764;51.430;6.840;2023-11-19T08:37:21;12.30;99.90
15328;DHT22;7764;51.430;6.840;2023-11-19T08:39:48;12.40;99.90
15328;DHT22;7764;51.430;6.840;2023-11-19T08:42:18;12.40;99.90
15328;DHT22;7764;51.430;6.840;2023-11-19T08:44:49;12.50;99.90
15328;DHT22;7764;51.430;6.840;2023-11-19T08:47:21;12.50;99.90
15328;DHT22;7764;51.430;6.840;2023-11-19T08:49:50;12.50;99.90
15328;DHT22;7764;51.430;6.840;2023-11-19T08:52:17;12.50;99.90
15328;DHT22;7764;51.430;6.840;2023-11-19T08:54:44;12.60;99.90
15328;DHT22;7764;51.430;6.840;2023-11-19T08:57:11;12.60;99.90
15328;DHT22;7764;51.430;6.840;2023-11-19T08:59:38;12.60;99.90
15328;DHT22;7764;51.430;6.840;2023-11-19T09:02:05;12.60;99.90
15328;DHT22;7764;51.430;6.840;2023-11-19T09:04:33;12.70;99.90
15328;DHT22;7764;51.430;6.840;2023-11-19T09:07:01;12.70;99.90
15328;DHT22;7764;51.430;6.840;2023-11-19T09:09:28;12.80;99.90
15328;DHT22;7764;51.430;6.840;2023-11-19T09:11:55;12.80;99.90
15328;DHT22;7764;51.430;6.840;2023-11-19T09:14:22;12.80;99.90
15328;DHT22;7764;51.430;6.840;2023-11-19T09:16:51;12.90;99.90
15328;DHT22;7764;51.430;6.840;2023-11-19T09:19:18;12.90;99.90
15328;DHT22;7764;51.430;6.840;2023-11-19T09:21:46;13.00;99.90
15328;DHT22;7764;51.430;6.840;2023-11-19T09:24:14;13.00;99.90
15328;DHT22;7764;51.430;6.840;2023-11-19T09:26:41;13.00;99.90
15328;DHT22;7764;51.430;6.840;2023-11-19T09:29:08;13.10;99.90
15328;DHT22;7764;51.430;6.840;2023-11-19T09:31:37;13.10;99.90
15328;DHT22;7764;51.430;6.840;2023-11-19T09:34:04;13.10;99.90
15328;DHT22;7764;51.430;6.840;2023-11-19T09:36:32;13.00;99.90
15328;DHT22;7764;51.430;6.840;2023-11-19T09:39:00;13.10;99.90
15328;DHT22;7764;51.430;6.840;2023-11-19T09:41:27;13.10;99.90
15328;DHT22;7764;51.430;6.840;2023-11-19T09:43:56;13.10;99.90
15328;DHT22;7764;51.430;6.840;2023-11-19T09:46:23;13.20;99.90
15328;DHT22;7764;51.430;6.840;2023-11-19T09:48:53;13.20;99.90
15328;DHT22;7764;51.430;6.840;2023-11-19T09:51:20;13.20;99.90
15328;DHT22;7764;51.430;6.840;2023-11-19T09:53:48;13.20;99.90
15328;DHT22;7764;51.430;6.840;2023-11-19T09:56:16;13.30;99.90
15328;DHT22;7764;51.430;6.840;2023-11-19T09:58:43;13.30;99.90
15328;DHT22;7764;51.430;6.840;2023-11-19T10:01:10;13.30;99.90
15328;DHT22;7764;51.430;6.840;2023-11-19T10:03:38;13.40;99.90
15328;DHT22;7764;51.430;6.840;2023-11-19T10:06:07;13.40;99.90
15328;DHT22;7764;51.430;6.840;2023-11-19T10:08:36;13.40;99.90
15328;DHT22;7764;51.430;6.840;2023-11-19T10:11:05;13.50;99.90
15328;DHT22;7764;51.430;6.840;2023-11-19T10:13:35;13.50;99.90
15328;DHT22;7764;51.430;6.840;2023-11-19T10:16:06;13.50;99.90
15328;DHT22;7764;51.430;6.840;2023-11-19T10:18:34;13.50;99.90
15328;DHT22;7764;51.430;6.840;2023-11-19T10:21:04;13.50;99.90
15328;DHT22;7764;51.430;6.840;2023-11-19T10:23:48;13.50;99.90
15328;DHT22;7764;51.430;6.840;2023-11-19T10:26:15;13.60;99.90
15328;DHT22;7764;51.430;6.840;2023-11-19T10:28:43;13.60;99.90
15328;DHT22;7764;51.430;6.840;2023-11-19T10:31:12;13.70;99.90
15328;DHT22;7764;51.430;6.840;2023-11-19T10:33:39;13.70;99.90
15328;DHT22;7764;51.430;6.840;2023-11-19T10:36:12;13.70;99.90
15328;DHT22;7764;51.430;6.840;2023-11-19T10:38:40;13.70;99.90
15328;DHT22;7764;51.430;6.840;2023-11-19T10:41:07;13.80;99.90
15328;DHT22;7764;51.430;6.840;2023-11-19T10:43:44;13.90;99.90
15328;DHT22;7764;51.430;6.840;2023-11-19T10:46:12;13.90;99.90
15328;DHT22;7764;51.430;6.840;2023-11-19T10:48:39;13.90;99.90
15328;DHT22;7764;51.430;6.840;2023-11-19T10:51:07;13.90;99.90
15328;DHT22;7764;51.430;6.840;2023-11-19T10:53:37;14.00;99.90
15328;DHT22;7764;51.430;6.840;2023-11-19T10:56:06;14.00;99.90
15328;DHT22;7764;51.430;6.840;2023-11-19T10:58:37;14.00;99.90
15328;DHT22;7764;51.430;6.840;2023-11-19T11:01:16;14.00;99.90
15328;DHT22;7764;51.430;6.840;2023-11-19T11:03:46;14.10;99.90
15328;DHT22;7764;51.430;6.840;2023-11-19T11:06:15;14.10;99.90
15328;DHT22;7764;51.430;6.840;2023-11-19T11:08:42;14.10;99.90
15328;DHT22;7764;51.430;6.840;2023-11-19T11:11:10;14.10;99.90
15328;DHT22;7764;51.430;6.840;2023-11-19T11:13:41;14.10;99.90
15328;DHT22;7764;51.430;6.840;2023-11-19T11:16:09;14.20;99.90
15328;DHT22;7764;51.430;6.840;2023-11-19T11:18:37;14.20;99.90
15328;DHT22;7764;51.430;6.840;2023-11-19T11:21:07;14.20;99.90
15328;DHT22;7764;51.430;6.840;2023-11-19T11:23:54;14.30;99.90
15328;DHT22;7764;51.430;6.840;2023-11-19T11:26:53;14.30;99.90
15328;DHT22;7764;51.430;6.840;2023-11-19T11:29:35;14.30;99.90
15328;DHT22;7764;51.430;6.840;2023-11-19T11:32:12;14.30;99.90
15328;DHT22;7764;51.430;6.840;2023-11-19T11:34:58;14.30;99.90
15328;DHT22;7764;51.430;6.840;2023-11-19T11:37:32;14.30;99.90
15328;DHT22;7764;51.430;6.840;2023-11-19T11:40:01;14.40;99.90
15328;DHT22;7764;51.430;6.840;2023-11-19T11:42:36;14.40;99.90
15328;DHT22;7764;51.430;6.840;2023-11-19T11:45:04;14.40;99.90
15328;DHT22;7764;51.430;6.840;2023-11-19T11:48:08;14.40;99.90
15328;DHT22;7764;51.430;6.840;2023-11-19T11:50:49;14.40;99.90
15328;DHT22;7764;51.430;6.840;2023-11-19T11:53:17;14.30;99.90
15328;DHT22;7764;51.430;6.840;2023-11-19T11:55:57;14.30;99.90
15328;DHT22;7764;51.430;6.840;2023-11-19T11:58:34;14.30;99.90
15328;DHT22;7764;51.430;6.840;2023-11-19T12:01:04;14.30;99.90
15328;DHT22;7764;51.430;6.840;2023-11-19T12:03:34;14.30;99.90
15328;DHT22;7764;51.430;6.840;2023-11-19T12:06:05;14.30;99.90
15328;DHT22;7764;51.430;6.840;2023-11-19T12:08:34;14.30;99.90
15328;DHT22;7764;51.430;6.840;2023-11-19T12:11:01;14.30;99.90
15328;DHT22;7764;51.430;6.840;2023-11-19T12:13:46;14.30;99.90
15328;DHT22;7764;51.430;6.840;2023-11-19T12:16:14;14.40;99.90
15328;DHT22;7764;51.430;6.840;2023-11-19T12:18:41;14.50;99.90
15328;DHT22;7764;51.430;6.840;2023-11-19T12:21:09;14.40;99.90
15328;DHT22;7764;51.430;6.840;2023-11-19T12:23:45;14.40;99.90
15328;DHT22;7764;51.430;6.840;2023-11-19T12:26:33;14.40;99.90
15328;DHT22;7764;51.430;6.840;2023-11-19T12:29:01;14.40;99.90
15328;DHT22;7764;51.430;6.840;2023-11-19T12:31:31;14.40;99.90
15328;DHT22;7764;51.430;6.840;2023-11-19T12:34:05;14.40;99.90
15328;DHT22;7764;51.430;6.840;2023-11-19T12:36:33;14.40;99.90
15328;DHT22;7764;51.430;6.840;2023-11-19T12:39:01;14.40;99.90
15328;DHT22;7764;51.430;6.840;2023-11-19T12:41:27;14.30;99.90
15328;DHT22;7764;51.430;6.840;2023-11-19T12:44:03;14.30;99.90
15328;DHT22;7764;51.430;6.840;2023-11-19T12:46:35;14.10;99.90
15328;DHT22;7764;51.430;6.840;2023-11-19T12:49:01;14.00;99.90
15328;DHT22;7764;51.430;6.840;2023-11-19T12:51:31;13.90;99.90
15328;DHT22;7764;51.430;6.840;2023-11-19T12:53:59;13.90;99.90
15328;DHT22;7764;51.430;6.840;2023-11-19T12:56:26;13.90;99.90
15328;DHT22;7764;51.430;6.840;2023-11-19T12:58:52;13.90;99.90
15328;DHT22;7764;51.430;6.840;2023-11-19T13:01:20;13.90;99.90
15328;DHT22;7764;51.430;6.840;2023-11-19T13:03:48;13.90;99.90
15328;DHT22;7764;51.430;6.840;2023-11-19T13:06:17;13.80;99.90
15328;DHT22;7764;51.430;6.840;2023-11-19T13:08:47;13.70;99.90
15328;DHT22;7764;51.430;6.840;2023-11-19T13:11:30;13.70;99.90
15328;DHT22;7764;51.430;6.840;2023-11-19T13:13:59;13.70;99.90
15328;DHT22;7764;51.430;6.840;2023-11-19T13:16:27;13.70;99.90
15328;DHT22;7764;51.430;6.840;2023-11-19T13:18:54;13.70;99.90
15328;DHT22;7764;51.430;6.840;2023-11-19T13:21:21;13.70;99.90
15328;DHT22;7764;51.430;6.840;2023-11-19T13:23:48;13.60;99.90
15328;DHT22;7764;51.430;6.840;2023-11-19T13:26:14;13.60;99.90
15328;DHT22;7764;51.430;6.840;2023-11-19T13:28:43;13.60;99.90
15328;DHT22;7764;51.430;6.840;2023-11-19T13:31:09;13.50;99.90
15328;DHT22;7764;51.430;6.840;2023-11-19T13:33:36;13.50;99.90
15328;DHT22;7764;51.430;6.840;2023-11-19T13:36:04;13.50;99.90
15328;DHT22;7764;51.430;6.840;2023-11-19T13:38:33;13.40;99.90
15328;DHT22;7764;51.430;6.840;2023-11-19T13:41:00;13.50;99.90
15328;DHT22;7764;51.430;6.840;2023-11-19T13:43:27;13.50;99.90
15328;DHT22;7764;51.430;6.840;2023-11-19T13:45:56;13.50;99.90
15328;DHT22;7764;51.430;6.840;2023-11-19T13:48:24;13.40;99.90
15328;DHT22;7764;51.430;6.840;2023-11-19T13:50:52;13.40;99.90
15328;DHT22;7764;51.430;6.840;2023-11-19T13:53:19;13.50;99.90
15328;DHT22;7764;51.430;6.840;2023-11-19T13:55:46;13.50;99.90
15328;DHT22;7764;51.430;6.840;2023-11-19T13:58:13;13.60;99.90
15328;DHT22;7764;51.430;6.840;2023-11-19T14:00:40;13.50;99.90
15328;DHT22;7764;51.430;6.840;2023-11-19T14:03:09;13.50;99.90
15328;DHT22;7764;51.430;6.840;2023-11-19T14:05:36;13.50;99.90
15328;DHT22;7764;51.430;6.840;2023-11-19T14:08:03;13.50;99.90
15328;DHT22;7764;51.430;6.840;2023-11-19T14:10:37;13.50;99.90
15328;DHT22;7764;51.430;6.840;2023-11-19T14:13:04;13.50;99.90
15328;DHT22;7764;51.430;6.840;2023-11-19T14:15:31;13.40;99.90
15328;DHT22;7764;51.430;6.840;2023-11-19T14:17:58;13.40;99.90
15328;DHT22;7764;51.430;6.840;2023-11-19T14:20:26;13.30;99.90
15328;DHT22;7764;51.430;6.840;2023-11-19T14:22:53;13.30;99.90
15328;DHT22;7764;51.430;6.840;2023-11-19T14:25:19;13.20;99.90
15328;DHT22;7764;51.430;6.840;2023-11-19T14:27:49;13.20;99.90
15328;DHT22;7764;51.430;6.840;2023-11-19T14:30:16;13.10;99.90
15328;DHT22;7764;51.430;6.840;2023-11-19T14:32:43;13.10;99.90
15328;DHT22;7764;51.430;6.840;2023-11-19T14:35:11;13.10;99.90
15328;DHT22;7764;51.430;6.840;2023-11-19T14:37:40;13.10;99.90
15328;DHT22;7764;51.430;6.840;2023-11-19T14:40:07;13.10;99.90
15328;DHT22;7764;51.430;6.840;2023-11-19T14:42:36;13.10;99.90
15328;DHT22;7764;51.430;6.840;2023-11-19T14:45:05;13.00;99.90
15328;DHT22;7764;51.430;6.840;2023-11-19T14:47:32;13.00;99.90
15328;DHT22;7764;51.430;6.840;2023-11-19T14:49:59;13.00;99.90
15328;DHT22;7764;51.430;6.840;2023-11-19T14:52:26;13.00;99.90
15328;DHT22;7764;51.430;6.840;2023-11-19T14:54:54;12.90;99.90
15328;DHT22;7764;51.430;6.840;2023-11-19T14:57:22;12.90;99.90
15328;DHT22;7764;51.430;6.840;2023-11-19T14:59:48;12.90;99.90
15328;DHT22;7764;51.430;6.840;2023-11-19T15:02:15;12.90;99.90
15328;DHT22;7764;51.430;6.840;2023-11-19T15:04:42;12.90;99.90
15328;DHT22;7764;51.430;6.840;2023-11-19T15:07:09;12.80;99.90
15328;DHT22;7764;51.430;6.840;2023-11-19T15:09:37;12.80;99.90
15328;DHT22;7764;51.430;6.840;2023-11-19T15:12:06;12.70;99.90
15328;DHT22;7764;51.430;6.840;2023-11-19T15:14:32;12.70;99.90
15328;DHT22;7764;51.430;6.840;2023-11-19T15:16:59;12.70;99.90
15328;DHT22;7764;51.430;6.840;2023-11-19T15:19:26;12.60;99.90
15328;DHT22;7764;51.430;6.840;2023-11-19T15:21:53;12.70;99.90
15328;DHT22;7764;51.430;6.840;2023-11-19T15:24:20;12.60;99.90
15328;DHT22;7764;51.430;6.840;2023-11-19T15:26:47;12.60;99.90
15328;DHT22;7764;51.430;6.840;2023-11-19T15:29:15;12.50;99.90
15328;DHT22;7764;51.430;6.840;2023-11-19T15:31:43;12.50;99.90
15328;DHT22;7764;51.430;6.840;2023-11-19T15:34:09;12.50;99.90
15328;DHT22;7764;51.430;6.840;2023-11-19T15:36:36;12.50;99.90
15328;DHT22;7764;51.430;6.840;2023-11-19T15:39:03;12.40;99.90
15328;DHT22;7764;51.430;6.840;2023-11-19T15:41:31;12.30;99.90
15328;DHT22;7764;51.430;6.840;2023-11-19T15:43:58;12.30;99.90
15328;DHT22;7764;51.430;6.840;2023-11-19T15:46:26;12.20;99.90
15328;DHT22;7764;51.430;6.840;2023-11-19T15:48:53;12.20;99.90
15328;DHT22;7764;51.430;6.840;2023-11-19T15:51:20;12.20;99.90